Time;durP1;ratioP1;P1;durP2;ratioP2;P2;SDS_P1;SDS_P2;PMS_P1;PMS_P2;Temp;Humidity;BMP_temperature;BMP_pressure;BME280_temperature;BME280_humidity;BME280_pressure;Samples;Min_cycle;Max_cycle;Signal;HPM_P1;HPM_P2
2021/03/31 00:01:52;;;;;;;9.13;4.18;;;5.30;99.90;;;;;;8292204;28;20076;-70
2021/03/31 00:05:52;;;;;;;7.93;3.75;;;5.30;99.90;;;;;;8292068;28;20057;-70
2021/03/31 00:09:53;;;;;;;9.18;4.50;;;5.20;99.90;;;;;;8290558;28;20072;-70
2021/03/31 00:13:53;;;;;;;11.73;4.22;;;5.10;99.90;;;;;;8274739;28;20101;-70
2021/03/31 00:17:54;;;;;;;7.50;4.65;;;5.00;99.90;;;;;;8274762;28;20053;-70
2021/03/31 00:21:54;;;;;;;6.90;4.07;;;4.80;99.90;;;;;;8297931;28;20515;-70
2021/03/31 00:25:56;;;;;;;8.48;4.30;;;4.90;99.90;;;;;;8298573;28;20034;-70
2021/03/31 00:29:57;;;;;;;8.98;4.40;;;5.10;99.90;;;;;;8298332;28;20105;-69
2021/03/31 00:33:57;;;;;;;9.75;4.40;;;5.10;99.90;;;;;;8280776;28;20026;-70
2021/03/31 00:37:58;;;;;;;9.18;4.22;;;5.20;99.90;;;;;;8275797;28;20033;-70
2021/03/31 00:41:59;;;;;;;11.20;5.00;;;5.00;99.90;;;;;;8297557;28;20088;-70
2021/03/31 00:46:00;;;;;;;11.07;5.70;;;5.00;99.90;;;;;;8280641;28;20029;-70
2021/03/31 00:50:01;;;;;;;9.20;4.40;;;4.80;99.90;;;;;;8297937;28;20508;-71
2021/03/31 00:54:02;;;;;;;12.80;4.30;;;4.60;99.90;;;;;;8297486;28;20021;-70
2021/03/31 00:58:02;;;;;;;9.13;4.82;;;4.50;99.90;;;;;;8280057;28;20038;-70
2021/03/31 01:02:03;;;;;;;8.27;4.22;;;4.50;99.90;;;;;;8279972;28;20037;-70
2021/03/31 01:06:05;;;;;;;7.53;4.03;;;4.50;99.90;;;;;;8297096;28;20037;-70
2021/03/31 01:10:07;;;;;;;7.45;4.60;;;4.40;99.90;;;;;;8279516;28;20037;-70
2021/03/31 01:14:17;;;;;;;8.43;4.38;;;4.30;99.90;;;;;;8279051;28;20053;-70
2021/03/31 01:18:42;;;;;;;9.40;3.70;;;4.10;99.90;;;;;;8297207;28;20636;-70
2021/03/31 01:23:12;;;;;;;8.73;4.72;;;4.00;99.90;;;;;;8279128;28;20041;-70
2021/03/31 01:27:19;;;;;;;9.10;4.80;;;3.80;99.90;;;;;;8279236;28;20022;-71
2021/03/31 01:31:38;;;;;;;9.63;4.95;;;3.80;99.90;;;;;;8278415;28;20029;-70
2021/03/31 01:35:41;;;;;;;9.93;5.07;;;4.10;99.90;;;;;;8296354;28;20026;-70
2021/03/31 01:39:43;;;;;;;9.70;5.00;;;4.00;99.90;;;;;;8279047;28;20072;-70
2021/03/31 01:43:48;;;;;;;8.02;4.90;;;4.20;99.90;;;;;;8278459;28;20592;-70
2021/03/31 01:47:50;;;;;;;12.27;5.53;;;4.00;99.90;;;;;;8296526;28;20013;-70
2021/03/31 01:52:01;;;;;;;11.75;4.35;;;3.70;99.90;;;;;;8295787;28;20018;-70
2021/03/31 01:56:02;;;;;;;7.70;4.63;;;3.70;99.90;;;;;;8278399;28;20037;-70
2021/03/31 02:00:05;;;;;;;9.55;5.25;;;3.80;99.90;;;;;;8296052;28;20068;-70
2021/03/31 02:04:06;;;;;;;9.00;4.88;;;4.00;99.90;;;;;;8277555;28;20060;-70
2021/03/31 02:08:08;;;;;;;15.40;4.97;;;3.80;99.90;;;;;;8295527;28;20021;-70
2021/03/31 02:12:12;;;;;;;12.73;5.47;;;3.70;99.90;;;;;;8277713;28;20061;-69
2021/03/31 02:16:14;;;;;;;10.70;4.97;;;3.60;99.90;;;;;;8277223;28;20037;-70
2021/03/31 02:20:16;;;;;;;12.07;5.30;;;3.60;99.90;;;;;;8295206;28;20043;-70
2021/03/31 02:24:19;;;;;;;14.48;5.82;;;3.50;99.90;;;;;;8295124;28;20103;-70
2021/03/31 02:28:20;;;;;;;11.02;4.63;;;3.60;99.90;;;;;;8295367;28;20493;-70
2021/03/31 02:32:22;;;;;;;7.80;4.90;;;3.50;99.90;;;;;;8277358;28;20030;-71
2021/03/31 02:36:23;;;;;;;9.88;4.90;;;3.30;99.90;;;;;;8294399;28;20040;-70
2021/03/31 02:40:27;;;;;;;10.25;4.95;;;3.20;99.90;;;;;;8277152;28;20030;-70
2021/03/31 02:44:30;;;;;;;11.18;4.80;;;3.20;99.90;;;;;;8293288;28;20473;-70
2021/03/31 02:48:32;;;;;;;8.50;4.97;;;3.40;99.90;;;;;;8294969;28;20026;-70
2021/03/31 02:52:33;;;;;;;9.65;4.72;;;3.20;99.90;;;;;;8276646;28;20060;-69
2021/03/31 02:56:34;;;;;;;10.52;5.35;;;3.10;99.90;;;;;;8276443;28;20026;-69
2021/03/31 03:00:35;;;;;;;11.65;5.13;;;3.10;99.90;;;;;;8294032;28;20037;-70
2021/03/31 03:04:37;;;;;;;10.10;5.45;;;3.20;99.90;;;;;;8276453;28;20447;-69
2021/03/31 03:08:38;;;;;;;12.80;5.30;;;3.00;99.90;;;;;;8276205;28;20048;-70
2021/03/31 03:12:55;;;;;;;13.77;6.30;;;3.10;99.90;;;;;;8275899;28;20037;-69
2021/03/31 03:16:55;;;;;;;17.08;6.65;;;2.80;99.90;;;;;;8293564;28;20096;-70
2021/03/31 03:20:59;;;;;;;10.90;5.07;;;2.70;99.90;;;;;;8276287;28;20029;-70
2021/03/31 03:25:02;;;;;;;9.48;5.10;;;2.60;99.90;;;;;;8276068;28;20088;-69
2021/03/31 03:29:04;;;;;;;8.68;4.68;;;2.70;99.90;;;;;;8293445;28;20480;-70
2021/03/31 03:33:05;;;;;;;11.10;5.32;;;2.90;99.90;;;;;;8293135;28;20026;-69
2021/03/31 03:37:06;;;;;;;10.32;5.97;;;2.90;99.90;;;;;;8275660;28;20064;-70
2021/03/31 03:41:09;;;;;;;11.95;6.57;;;2.80;99.90;;;;;;8293610;28;20026;-70
2021/03/31 03:45:11;;;;;;;13.85;8.10;;;2.70;99.90;;;;;;8293369;28;20433;-70
2021/03/31 03:49:11;;;;;;;16.90;7.70;;;2.60;99.90;;;;;;8293031;28;20026;-70
2021/03/31 03:53:12;;;;;;;15.88;7.57;;;2.90;99.90;;;;;;8293049;28;20084;-70
2021/03/31 03:57:13;;;;;;;13.52;7.20;;;2.50;99.90;;;;;;8299202;28;20065;-70
2021/03/31 04:01:14;;;;;;;14.00;6.53;;;2.60;99.90;;;;;;8281642;28;20080;-70
2021/03/31 04:05:14;;;;;;;11.50;5.80;;;2.60;99.90;;;;;;8280561;28;20435;-70
2021/03/31 04:09:15;;;;;;;12.18;6.00;;;2.60;99.90;;;;;;8297898;28;20018;-70
2021/03/31 04:13:17;;;;;;;17.02;7.72;;;2.60;99.90;;;;;;8298303;28;20022;-69
2021/03/31 04:17:19;;;;;;;16.45;7.63;;;2.60;99.90;;;;;;8297959;28;20543;-69
2021/03/31 04:21:19;;;;;;;13.50;6.80;;;2.60;99.90;;;;;;8297808;28;20051;-70
2021/03/31 04:25:23;;;;;;;16.95;6.70;;;2.50;99.90;;;;;;8296870;28;20033;-69
2021/03/31 04:29:25;;;;;;;12.80;6.30;;;2.90;99.90;;;;;;8297515;28;20548;-69
2021/03/31 04:33:26;;;;;;;11.23;5.93;;;3.30;99.90;;;;;;8276360;28;20025;-70
2021/03/31 04:37:26;;;;;;;14.43;6.10;;;3.40;99.90;;;;;;8298422;28;20041;-69
2021/03/31 04:41:27;;;;;;;14.43;5.80;;;3.30;99.90;;;;;;8297598;28;20026;-69
2021/03/31 04:45:27;;;;;;;19.17;6.68;;;3.20;99.90;;;;;;8298125;28;20033;-69
2021/03/31 04:49:28;;;;;;;8.32;5.43;;;4.20;99.90;;;;;;8297753;28;20057;-69
2021/03/31 04:53:29;;;;;;;15.10;6.28;;;5.70;99.90;;;;;;8297644;28;20176;-70
2021/03/31 04:57:30;;;;;;;12.95;6.32;;;6.20;99.90;;;;;;8294285;28;20052;-71
2021/03/31 05:01:30;;;;;;;13.98;6.53;;;5.00;99.90;;;;;;8296079;28;20109;-71
2021/03/31 05:05:31;;;;;;;13.60;6.57;;;4.10;99.90;;;;;;8278986;28;20022;-69
2021/03/31 05:09:31;;;;;;;14.50;6.13;;;3.60;99.90;;;;;;8297390;28;20506;-70
2021/03/31 05:13:32;;;;;;;9.95;5.97;;;3.10;99.90;;;;;;8279994;28;20037;-70
2021/03/31 05:17:32;;;;;;;13.48;6.47;;;2.60;99.90;;;;;;8297154;28;20064;-70
2021/03/31 05:21:33;;;;;;;13.98;7.50;;;2.50;99.90;;;;;;8296441;28;20639;-69
2021/03/31 05:25:34;;;;;;;14.13;7.45;;;2.60;99.90;;;;;;8296707;28;20022;-69
2021/03/31 05:29:34;;;;;;;13.93;7.05;;;2.60;99.90;;;;;;8278739;28;20026;-70
2021/03/31 05:33:35;;;;;;;14.60;8.13;;;2.80;99.90;;;;;;8277298;28;20052;-68
2021/03/31 05:37:36;;;;;;;18.50;8.82;;;3.00;99.90;;;;;;8271889;28;20033;-67
2021/03/31 05:41:36;;;;;;;20.83;8.93;;;3.20;99.90;;;;;;8291848;28;20018;-67
2021/03/31 05:45:37;;;;;;;20.05;8.23;;;3.50;99.90;;;;;;8296416;28;20091;-67
2021/03/31 05:49:38;;;;;;;16.50;9.25;;;3.70;99.90;;;;;;8295651;28;20024;-67
2021/03/31 05:53:39;;;;;;;18.17;8.27;;;3.90;99.90;;;;;;8289049;28;20081;-68
2021/03/31 05:57:41;;;;;;;12.25;7.45;;;4.20;99.90;;;;;;8281715;28;20037;-67
2021/03/31 06:01:41;;;;;;;14.13;7.38;;;4.40;99.90;;;;;;8277069;28;20370;-66
2021/03/31 06:05:42;;;;;;;12.45;6.38;;;4.50;99.90;;;;;;8291726;28;20025;-66
2021/03/31 06:10:03;;;;;;;17.30;8.02;;;4.70;99.90;;;;;;8294321;28;20010;-65
2021/03/31 06:14:03;;;;;;;15.25;8.40;;;4.90;99.90;;;;;;8291482;28;20053;-66
2021/03/31 06:18:07;;;;;;;16.13;8.40;;;5.20;99.90;;;;;;8282106;28;20045;-66
2021/03/31 06:26:42;;;;;;;14.27;8.40;;;5.70;99.90;;;;;;8288920;28;20558;-66
2021/03/31 06:30:42;;;;;;;18.27;8.20;;;5.80;99.90;;;;;;8285492;28;20041;-66
2021/03/31 06:34:54;;;;;;;13.32;8.02;;;6.10;99.90;;;;;;8273694;28;20025;-66
2021/03/31 06:38:55;;;;;;;12.65;6.90;;;6.40;99.90;;;;;;8290755;28;20152;-66
2021/03/31 06:43:37;;;;;;;14.13;7.50;;;6.70;99.90;;;;;;8292785;28;20026;-65
2021/03/31 06:47:43;;;;;;;16.85;7.50;;;6.90;99.90;;;;;;8292435;28;20400;-66
2021/03/31 06:51:44;;;;;;;19.83;8.25;;;7.10;99.90;;;;;;8271812;28;20030;-66
2021/03/31 06:56:04;;;;;;;13.02;7.60;;;7.30;99.90;;;;;;8251658;28;20120;-66
2021/03/31 07:00:13;;;;;;;19.45;7.65;;;7.60;99.90;;;;;;8284556;28;20037;-65
2021/03/31 07:04:14;;;;;;;11.82;6.88;;;8.00;99.90;;;;;;8275525;28;20034;-66
2021/03/31 07:08:17;;;;;;;13.23;6.47;;;8.20;99.90;;;;;;8288649;28;20033;-65
2021/03/31 07:12:19;;;;;;;13.15;6.63;;;8.60;99.90;;;;;;8274859;28;20041;-66
2021/03/31 07:16:20;;;;;;;14.02;7.13;;;8.70;99.90;;;;;;8293003;28;20061;-66
2021/03/31 07:20:22;;;;;;;11.50;6.90;;;9.20;99.90;;;;;;8273765;28;20037;-66
2021/03/31 07:24:23;;;;;;;19.40;8.15;;;9.50;99.90;;;;;;8291362;28;20447;-66
2021/03/31 07:28:25;;;;;;;12.55;8.23;;;9.70;99.90;;;;;;8276004;28;20075;-66
2021/03/31 07:32:26;;;;;;;18.20;7.65;;;10.10;99.90;;;;;;8302489;28;20038;-66
2021/03/31 07:36:28;;;;;;;12.75;7.53;;;10.30;99.90;;;;;;8303081;28;20037;-66
2021/03/31 07:40:34;;;;;;;10.82;6.93;;;10.90;99.90;;;;;;8279783;28;20369;-66
2021/03/31 07:44:35;;;;;;;10.40;6.55;;;11.20;99.90;;;;;;8296979;28;20030;-66
2021/03/31 07:48:37;;;;;;;10.65;6.70;;;11.40;99.90;;;;;;8279992;28;20041;-65
2021/03/31 07:52:56;;;;;;;10.48;6.30;;;11.70;99.90;;;;;;8287516;28;20508;-66
2021/03/31 07:56:58;;;;;;;12.02;6.00;;;12.00;99.90;;;;;;8296521;28;20073;-66
2021/03/31 08:01:05;;;;;;;11.77;5.57;;;12.40;99.90;;;;;;8300200;28;20116;-66
2021/03/31 08:05:09;;;;;;;10.93;6.05;;;12.90;99.90;;;;;;8292844;28;20097;-66
2021/03/31 08:09:19;;;;;;;10.68;5.22;;;13.20;99.90;;;;;;8296923;28;20030;-66
2021/03/31 08:13:25;;;;;;;8.80;4.40;;;13.60;99.90;;;;;;8283889;28;20033;-66
2021/03/31 08:17:26;;;;;;;8.18;4.85;;;14.00;99.90;;;;;;8302525;28;20399;-66
2021/03/31 08:21:29;;;;;;;11.88;5.45;;;14.40;99.90;;;;;;8284258;28;20029;-66
2021/03/31 08:25:31;;;;;;;11.13;5.55;;;14.60;99.90;;;;;;8298738;28;20018;-66
2021/03/31 08:29:32;;;;;;;12.45;6.10;;;14.50;99.90;;;;;;8283184;28;20022;-67
2021/03/31 08:33:32;;;;;;;15.50;6.35;;;14.70;99.90;;;;;;8280153;28;20065;-66
2021/03/31 08:37:33;;;;;;;14.82;6.35;;;15.00;99.90;;;;;;8302303;28;20030;-65
2021/03/31 08:41:38;;;;;;;11.95;7.00;;;15.20;99.90;;;;;;8299317;28;20034;-65
2021/03/31 08:45:39;;;;;;;14.65;7.40;;;15.40;99.90;;;;;;8294910;28;20033;-66
2021/03/31 08:49:42;;;;;;;11.40;6.75;;;15.60;99.90;;;;;;8274288;28;20507;-66
2021/03/31 08:53:43;;;;;;;15.23;7.72;;;15.50;99.90;;;;;;8277639;28;20080;-66
2021/03/31 08:57:47;;;;;;;15.38;7.05;;;15.60;99.40;;;;;;8275723;28;20721;-66
2021/03/31 09:01:48;;;;;;;14.55;6.85;;;15.60;97.70;;;;;;8275762;28;20033;-67
2021/03/31 09:06:02;;;;;;;13.43;6.53;;;15.70;98.70;;;;;;8276721;28;20018;-67
2021/03/31 09:10:09;;;;;;;15.93;8.40;;;15.80;98.50;;;;;;8279704;28;20120;-67
2021/03/31 09:14:21;;;;;;;15.25;7.93;;;16.00;96.70;;;;;;8278992;28;20061;-66
2021/03/31 09:18:22;;;;;;;15.75;9.30;;;16.00;95.10;;;;;;8296996;28;20034;-66
2021/03/31 09:22:27;;;;;;;19.67;8.65;;;16.20;94.60;;;;;;8276366;28;20053;-67
2021/03/31 09:26:27;;;;;;;20.02;9.98;;;16.40;97.20;;;;;;8289877;28;20567;-66
2021/03/31 09:30:28;;;;;;;20.33;9.98;;;16.40;92.80;;;;;;8279174;28;20314;-66
2021/03/31 09:34:29;;;;;;;21.45;10.02;;;16.50;92.80;;;;;;8286046;28;20032;-66
2021/03/31 09:38:30;;;;;;;20.60;9.68;;;16.60;90.60;;;;;;8273622;28;20555;-66
2021/03/31 09:42:36;;;;;;;19.25;10.02;;;16.70;90.30;;;;;;8294045;28;20033;-66
2021/03/31 09:46:37;;;;;;;18.25;10.15;;;16.60;90.70;;;;;;8267479;28;20036;-66
2021/03/31 09:50:37;;;;;;;20.15;10.88;;;16.90;88.50;;;;;;8294974;28;20038;-66
2021/03/31 09:54:46;;;;;;;16.85;10.95;;;17.10;92.30;;;;;;8285344;28;20175;-67
2021/03/31 09:58:48;;;;;;;20.10;10.95;;;17.30;86.80;;;;;;8275812;28;20042;-67
2021/03/31 10:02:50;;;;;;;17.02;10.32;;;17.60;87.10;;;;;;8273756;28;20034;-67
2021/03/31 10:07:14;;;;;;;23.95;11.23;;;17.70;84.70;;;;;;8268533;28;20036;-67
2021/03/31 10:11:28;;;;;;;20.30;11.43;;;17.90;84.40;;;;;;8270968;28;20026;-67
2021/03/31 10:15:28;;;;;;;19.45;10.90;;;18.10;82.10;;;;;;8275455;28;20073;-68
2021/03/31 10:19:29;;;;;;;18.42;11.65;;;18.40;77.60;;;;;;8293082;28;20098;-67
2021/03/31 10:23:33;;;;;;;17.23;10.73;;;18.60;82.40;;;;;;8276097;28;20190;-67
2021/03/31 10:27:45;;;;;;;18.42;11.40;;;18.70;75.80;;;;;;8290882;28;20052;-67
2021/03/31 10:31:47;;;;;;;19.15;11.23;;;18.80;74.90;;;;;;8276080;28;20523;-68
2021/03/31 10:35:52;;;;;;;16.42;10.52;;;19.00;72.50;;;;;;8293982;28;20103;-68
2021/03/31 10:52:21;;;;;;;21.95;12.25;;;19.90;71.90;;;;;;8291926;28;20109;-68
2021/03/31 10:56:23;;;;;;;20.00;11.02;;;19.90;70.10;;;;;;8273334;28;20028;-68
2021/03/31 11:00:23;;;;;;;19.08;10.95;;;20.40;69.90;;;;;;8292772;28;20104;-68
2021/03/31 11:04:24;;;;;;;16.50;10.13;;;20.90;66.00;;;;;;8290873;28;20014;-68
2021/03/31 11:08:25;;;;;;;15.10;9.00;;;23.00;59.10;;;;;;8293004;28;20030;-68
2021/03/31 11:12:25;;;;;;;19.85;11.18;;;26.00;49.90;;;;;;8275383;28;20022;-68
2021/03/31 11:16:26;;;;;;;18.13;11.13;;;28.30;43.80;;;;;;8285941;28;20119;-69
2021/03/31 11:20:38;;;;;;;15.85;10.77;;;30.40;38.40;;;;;;8290723;28;20502;-68
2021/03/31 11:28:58;;;;;;;20.10;9.90;;;31.40;34.80;;;;;;8279779;28;20198;-69
2021/03/31 11:32:58;;;;;;;14.80;10.20;;;32.60;36.90;;;;;;8277562;28;20034;-67
2021/03/31 11:36:59;;;;;;;16.60;11.30;;;34.40;32.70;;;;;;8275195;28;20038;-66
2021/03/31 11:41:00;;;;;;;17.63;10.65;;;33.40;29.90;;;;;;8273673;28;20034;-67
2021/03/31 11:45:00;;;;;;;14.80;10.77;;;33.50;30.60;;;;;;8277920;28;20088;-66
2021/03/31 11:49:01;;;;;;;15.57;10.82;;;31.90;32.00;;;;;;8270137;28;20041;-66
2021/03/31 11:53:02;;;;;;;16.33;10.90;;;32.90;31.40;;;;;;8254614;28;20112;-67
2021/03/31 11:57:03;;;;;;;18.20;10.23;;;34.30;29.90;;;;;;8271588;28;20068;-66
2021/03/31 12:01:04;;;;;;;14.23;9.77;;;35.80;28.30;;;;;;8287261;28;20033;-66
2021/03/31 12:05:05;;;;;;;17.48;10.15;;;36.10;28.10;;;;;;8289573;28;20038;-65
2021/03/31 12:09:07;;;;;;;13.98;10.40;;;35.50;28.50;;;;;;8288383;28;20036;-67
2021/03/31 12:13:07;;;;;;;17.85;10.88;;;36.30;27.00;;;;;;8288155;28;20029;-67
2021/03/31 12:17:09;;;;;;;17.98;10.20;;;35.90;27.00;;;;;;8294473;28;20040;-68
2021/03/31 12:21:09;;;;;;;16.98;9.82;;;36.20;26.80;;;;;;8286877;28;20064;-66
2021/03/31 12:25:11;;;;;;;16.08;9.90;;;35.10;26.80;;;;;;8294550;28;20030;-67
2021/03/31 12:29:12;;;;;;;14.85;9.75;;;33.20;29.50;;;;;;8294978;28;20432;-67
2021/03/31 12:33:13;;;;;;;16.35;10.25;;;33.90;29.30;;;;;;8278573;28;20061;-66
2021/03/31 12:37:14;;;;;;;15.35;10.18;;;32.40;29.10;;;;;;8296421;28;20030;-66
2021/03/31 12:41:15;;;;;;;15.23;9.48;;;34.10;29.20;;;;;;8295993;28;20080;-67
2021/03/31 12:45:15;;;;;;;12.45;9.25;;;36.60;27.10;;;;;;8296626;28;20030;-67
2021/03/31 12:49:17;;;;;;;15.35;9.40;;;38.10;26.60;;;;;;8297542;28;20033;-66
2021/03/31 12:57:18;;;;;;;12.20;9.07;;;39.10;25.20;;;;;;8295300;28;20390;-66
2021/03/31 13:01:24;;;;;;;11.73;8.35;;;40.70;22.90;;;;;;8295972;28;20093;-68
2021/03/31 13:05:25;;;;;;;14.25;9.93;;;42.10;21.90;;;;;;8295343;28;20381;-66
2021/03/31 13:09:27;;;;;;;14.25;8.57;;;41.20;21.80;;;;;;8296207;28;20022;-66
2021/03/31 13:13:51;;;;;;;13.48;10.20;;;39.60;22.50;;;;;;8277886;28;20096;-66
2021/03/31 13:22:17;;;;;;;12.98;8.73;;;39.00;23.90;;;;;;8289700;28;20029;-65
2021/03/31 13:26:36;;;;;;;13.93;10.45;;;38.30;23.10;;;;;;8292591;28;20029;-66
2021/03/31 13:30:45;;;;;;;13.52;9.38;;;39.50;23.20;;;;;;8293312;28;20022;-65
2021/03/31 13:34:52;;;;;;;17.27;10.47;;;39.50;24.00;;;;;;8292382;28;20021;-66
2021/03/31 13:42:53;;;;;;;14.40;9.75;;;39.00;23.70;;;;;;8291517;28;20087;-69
2021/03/31 13:46:59;;;;;;;12.57;9.45;;;41.10;22.10;;;;;;8289376;28;20030;-69
2021/03/31 13:51:01;;;;;;;;;;;41.70;22.20;;;;;;8294526;28;20033;-69
2021/03/31 13:55:05;;;;;;;;;;;40.90;22.30;;;;;;8268559;28;19928;-67
2021/03/31 13:59:06;;;;;;;;;;;42.10;21.60;;;;;;8291870;28;20520;-68
2021/03/31 14:03:07;;;;;;;;;;;41.40;21.60;;;;;;8293433;28;19909;-68
2021/03/31 14:07:08;;;;;;;;;;;40.90;21.70;;;;;;8291833;28;19918;-69
2021/03/31 14:11:08;;;;;;;;;;;41.30;21.40;;;;;;8294343;28;19987;-69
2021/03/31 14:15:09;;;;;;;;;;;40.40;21.60;;;;;;8295181;28;19921;-67
2021/03/31 14:19:10;;;;;;;;;;;40.50;22.10;;;;;;8275866;28;20292;-68
2021/03/31 14:23:12;;;;;;;;;;;40.40;22.10;;;;;;8293952;28;19925;-69
2021/03/31 14:27:12;;;;;;;16.38;9.50;;;41.10;21.30;;;;;;8291674;28;20463;-69
2021/03/31 14:31:13;;;;;;;18.73;9.02;;;40.00;22.80;;;;;;8293154;28;20038;-68
2021/03/31 14:35:14;;;;;;;13.82;9.07;;;41.60;21.80;;;;;;8274128;28;20021;-68
2021/03/31 14:39:15;;;;;;;15.07;9.73;;;41.80;21.30;;;;;;8291908;28;20030;-70
2021/03/31 14:43:15;;;;;;;20.00;15.07;;;38.40;23.30;;;;;;8294997;28;20161;-69
2021/03/31 14:47:16;;;;;;;;;;;38.90;23.30;;;;;;8276710;28;20536;-68
2021/03/31 14:51:23;;;;;;;;;;;38.90;22.80;;;;;;8272515;28;19959;-70
2021/03/31 14:59:38;;;;;;;;;;;41.90;21.10;;;;;;8289629;28;19936;-68
2021/03/31 15:03:39;;;;;;;;;;;41.20;21.20;;;;;;8286615;28;19949;-70
2021/03/31 15:07:40;;;;;;;;;;;40.90;21.10;;;;;;8269115;28;19909;-69
2021/03/31 15:11:40;;;;;;;;;;;38.40;22.40;;;;;;8289461;28;19924;-68
2021/03/31 15:15:41;;;;;;;;;;;37.40;23.30;;;;;;8271153;28;19909;-68
2021/03/31 15:20:26;;;;;;;;;;;38.30;22.30;;;;;;8286600;28;20379;-68
2021/03/31 15:24:05;;;;;;;;;;;37.60;23.40;;;;;;8274597;28;19963;-72
2021/03/31 15:28:05;;;;;;;;;;;37.50;22.30;;;;;;8282780;28;19909;-71
2021/03/31 15:32:07;;;;;;;;;;;37.40;22.70;;;;;;8276863;28;19954;-70
2021/03/31 15:36:08;;;;;;;;;;;35.50;24.20;;;;;;8278739;28;19914;-70
2021/03/31 15:40:08;;;;;;;;;;;35.30;25.50;;;;;;8284022;28;20360;-70
2021/03/31 15:44:10;;;;;;;;;;;35.10;25.90;;;;;;8268582;28;19916;-72
2021/03/31 15:48:11;;;;;;;;;;;35.10;26.60;;;;;;8279385;28;19917;-71
2021/03/31 15:52:12;;;;;;;;;;;35.40;24.50;;;;;;8290394;28;19916;-71
2021/03/31 15:56:12;;;;;;;;;;;34.30;25.40;;;;;;8299113;28;20118;-69
2021/03/31 16:00:13;;;;;;;;;;;34.90;25.50;;;;;;8300358;28;19928;-71
2021/03/31 16:04:20;;;;;;;;;;;35.20;25.50;;;;;;8294367;28;21211;-70
2021/03/31 16:08:21;;;;;;;;;;;36.10;25.80;;;;;;8281652;28;19909;-70
2021/03/31 16:12:21;;;;;;;;;;;36.30;24.00;;;;;;8281152;28;19916;-71
2021/03/31 16:16:22;;;;;;;;;;;36.60;23.20;;;;;;8279420;28;19959;-71
2021/03/31 16:20:22;;;;;;;;;;;37.00;25.00;;;;;;8264004;28;19979;-71
2021/03/31 16:24:23;;;;;;;;;;;36.10;23.80;;;;;;8275661;28;19914;-70
2021/03/31 16:28:47;;;;;;;;;;;35.90;24.40;;;;;;8293672;28;19952;-70
2021/03/31 16:32:48;;;;;;;;;;;35.10;25.60;;;;;;8276341;28;19929;-70
2021/03/31 16:36:54;;;;;;;;;;;35.10;25.70;;;;;;8296623;28;19944;-71
2021/03/31 16:40:54;;;;;;;;;;;34.50;26.30;;;;;;8298913;28;19912;-71
2021/03/31 16:44:54;;;;;;;;;;;33.50;27.40;;;;;;8298868;28;19909;-70
2021/03/31 16:48:55;;;;;;;;;;;32.70;28.40;;;;;;8298803;28;20371;-73
2021/03/31 16:52:56;;;;;;;;;;;31.90;29.20;;;;;;8291801;28;20391;-71
2021/03/31 16:56:56;;;;;;;;;;;30.90;29.40;;;;;;8268842;28;19920;-71
2021/03/31 17:00:57;;;;;;;15.50;9.60;;;28.90;31.90;;;;;;8276320;28;20473;-71
2021/03/31 17:04:58;;;;;;;11.45;8.05;;;27.20;34.20;;;;;;8279145;28;20411;-72
2021/03/31 17:08:58;;;;;;;16.20;8.65;;;25.80;36.30;;;;;;8280170;28;20107;-72
2021/03/31 17:12:59;;;;;;;15.45;8.30;;;24.60;37.90;;;;;;8297028;28;20033;-72
2021/03/31 17:17:00;;;;;;;16.10;7.80;;;23.60;39.50;;;;;;8279614;28;20033;-71
2021/03/31 17:21:01;;;;;;;18.38;7.82;;;23.00;41.20;;;;;;8287724;28;20563;-69
2021/03/31 17:25:04;;;;;;;14.75;6.35;;;22.50;42.50;;;;;;8293195;28;20026;-69
2021/03/31 17:29:04;;;;;;;13.90;5.35;;;22.10;48.40;;;;;;8290307;28;20120;-69
2021/03/31 17:33:07;;;;;;;12.65;5.60;;;21.40;51.00;;;;;;8292006;28;20104;-68
2021/03/31 17:37:07;;;;;;;12.18;5.28;;;20.70;53.20;;;;;;8285984;28;20033;-68
2021/03/31 17:41:08;;;;;;;17.23;5.78;;;20.30;54.90;;;;;;8278297;28;20033;-69
2021/03/31 17:45:10;;;;;;;16.75;5.47;;;19.70;56.40;;;;;;8265842;28;20029;-69
2021/03/31 17:49:11;;;;;;;19.95;6.03;;;19.30;58.00;;;;;;8263558;28;20022;-69
2021/03/31 17:53:15;;;;;;;19.05;9.50;;;18.70;58.80;;;;;;8277850;28;20034;-69
2021/03/31 17:57:16;;;;;;;17.63;10.40;;;18.30;59.80;;;;;;8276344;28;20072;-69
2021/03/31 18:01:16;;;;;;;16.50;8.90;;;18.00;61.20;;;;;;8275798;28;20030;-69
2021/03/31 18:05:17;;;;;;;18.52;10.50;;;18.00;62.10;;;;;;8263610;28;20042;-69
2021/03/31 18:09:18;;;;;;;18.95;8.73;;;17.60;63.40;;;;;;8266677;28;20022;-68
2021/03/31 18:13:19;;;;;;;20.35;8.05;;;17.20;65.00;;;;;;8279061;28;20060;-69
2021/03/31 18:17:20;;;;;;;13.85;6.50;;;17.10;66.70;;;;;;8281591;28;20033;-69
2021/03/31 18:21:20;;;;;;;11.40;6.57;;;16.80;68.40;;;;;;8257003;28;20034;-69
2021/03/31 18:25:21;;;;;;;12.80;7.13;;;16.40;70.40;;;;;;8271194;28;20125;-69
2021/03/31 18:29:22;;;;;;;14.90;6.97;;;16.00;73.20;;;;;;8270876;28;20022;-69
2021/03/31 18:33:23;;;;;;;14.02;6.55;;;15.80;74.80;;;;;;8257524;28;20065;-68
2021/03/31 18:37:23;;;;;;;14.43;7.85;;;15.40;77.60;;;;;;8269087;28;20758;-69
2021/03/31 18:41:28;;;;;;;20.88;7.93;;;15.30;79.70;;;;;;8270597;28;20030;-69
2021/03/31 18:45:32;;;;;;;16.20;10.00;;;15.10;82.10;;;;;;8265141;28;20061;-70
2021/03/31 18:49:33;;;;;;;22.55;11.43;;;15.00;83.50;;;;;;8270649;28;20029;-66
2021/03/31 18:53:34;;;;;;;18.40;8.32;;;15.20;83.30;;;;;;8271228;28;20415;-69
2021/03/31 18:57:35;;;;;;;14.77;8.50;;;15.00;85.50;;;;;;8271834;28;20045;-68
2021/03/31 19:01:36;;;;;;;14.25;7.47;;;14.40;90.30;;;;;;8289935;28;20026;-68
2021/03/31 19:05:37;;;;;;;25.00;12.63;;;14.30;91.90;;;;;;8289657;28;20105;-68
2021/03/31 19:13:56;;;;;;;18.42;9.30;;;14.10;93.90;;;;;;8287967;28;20036;-68
2021/03/31 19:17:57;;;;;;;15.07;8.18;;;13.80;95.50;;;;;;8270567;28;20034;-67
2021/03/31 19:21:58;;;;;;;20.13;9.43;;;13.40;98.10;;;;;;8288771;28;20041;-69
2021/03/31 19:25:59;;;;;;;22.17;9.45;;;13.30;99.90;;;;;;8268799;28;20029;-69
2021/03/31 19:30:00;;;;;;;21.85;9.88;;;13.10;99.90;;;;;;8285918;28;20033;-68
2021/03/31 19:34:01;;;;;;;18.63;10.40;;;13.00;99.90;;;;;;8289625;28;20034;-68
2021/03/31 19:38:02;;;;;;;16.58;9.90;;;13.20;99.90;;;;;;8289297;28;20101;-68
2021/03/31 19:42:03;;;;;;;21.08;10.93;;;12.80;99.90;;;;;;8289812;28;20109;-68
2021/03/31 19:46:04;;;;;;;17.70;9.45;;;12.60;99.90;;;;;;8268792;28;20029;-69
2021/03/31 19:50:06;;;;;;;33.88;12.68;;;12.40;99.90;;;;;;8288759;28;20034;-68
2021/03/31 19:54:07;;;;;;;18.55;10.77;;;12.30;99.90;;;;;;8271819;28;20045;-68
2021/03/31 19:58:11;;;;;;;21.38;10.18;;;12.30;99.90;;;;;;8289586;28;20512;-67
2021/03/31 20:02:12;;;;;;;14.15;8.55;;;12.20;99.90;;;;;;8289376;28;20029;-69
2021/03/31 20:06:13;;;;;;;17.05;8.43;;;12.30;99.90;;;;;;8290123;28;20160;-68
2021/03/31 20:10:15;;;;;;;12.63;7.07;;;12.00;99.90;;;;;;8288450;28;20679;-68
2021/03/31 20:14:16;;;;;;;12.77;6.50;;;11.70;99.90;;;;;;8273518;28;20026;-68
2021/03/31 20:18:17;;;;;;;16.95;7.03;;;11.60;99.90;;;;;;8290914;28;20711;-67
2021/03/31 20:22:17;;;;;;;16.25;8.18;;;11.60;99.90;;;;;;8273750;28;20053;-68
2021/03/31 20:26:18;;;;;;;24.75;13.82;;;11.70;99.90;;;;;;8290814;28;20026;-69
2021/03/31 20:30:23;;;;;;;19.35;10.90;;;11.50;99.90;;;;;;8272101;28;20126;-68
2021/03/31 20:34:24;;;;;;;21.30;10.15;;;11.30;99.90;;;;;;8288404;28;20439;-68
2021/03/31 20:38:25;;;;;;;18.33;9.40;;;11.30;99.90;;;;;;8293276;28;20028;-68
2021/03/31 20:42:28;;;;;;;14.50;7.40;;;11.30;99.90;;;;;;8294201;28;20033;-69
2021/03/31 20:46:29;;;;;;;13.10;7.20;;;11.20;99.90;;;;;;8276088;28;20033;-69
2021/03/31 20:50:30;;;;;;;15.23;5.88;;;11.20;99.90;;;;;;8276775;28;20029;-68
2021/03/31 20:54:30;;;;;;;12.75;5.97;;;11.30;99.90;;;;;;8295580;28;20552;-69
2021/03/31 20:58:31;;;;;;;10.77;5.93;;;11.20;99.90;;;;;;8294742;28;20057;-69
2021/03/31 21:02:33;;;;;;;14.02;7.13;;;11.00;99.90;;;;;;8295250;28;20030;-67
2021/03/31 21:06:34;;;;;;;14.18;6.63;;;10.90;99.90;;;;;;8295732;28;20037;-68
2021/03/31 21:10:35;;;;;;;15.52;7.22;;;10.70;99.90;;;;;;8271954;28;20029;-69
2021/03/31 21:14:35;;;;;;;16.73;6.88;;;10.30;99.90;;;;;;8284178;28;20038;-69
2021/03/31 21:18:36;;;;;;;15.75;7.40;;;10.20;99.90;;;;;;8297977;28;20068;-69
2021/03/31 21:22:36;;;;;;;12.63;7.25;;;10.20;99.90;;;;;;8297698;28;20037;-68
2021/03/31 21:26:37;;;;;;;13.48;7.75;;;10.20;99.90;;;;;;8298381;28;20040;-68
2021/03/31 21:30:38;;;;;;;18.55;7.70;;;9.80;99.90;;;;;;8298047;28;20053;-68
2021/03/31 21:34:38;;;;;;;14.07;6.78;;;9.60;99.90;;;;;;8297906;28;20459;-68
2021/03/31 21:38:39;;;;;;;15.20;7.50;;;9.50;99.90;;;;;;8297846;28;20026;-68
2021/03/31 21:42:40;;;;;;;26.23;10.20;;;9.40;99.90;;;;;;8279864;28;20184;-69
2021/03/31 21:46:40;;;;;;;36.88;16.20;;;9.40;99.90;;;;;;8280699;28;20412;-68
2021/03/31 21:50:41;;;;;;;19.30;10.55;;;9.20;99.90;;;;;;8296523;28;20022;-68
2021/03/31 21:54:41;;;;;;;16.67;9.35;;;9.20;99.90;;;;;;8297212;28;20026;-69